sensor_id;sensor_type;location;lat;lon;timestamp;temperature;humidity
69679;DHT22;56915;52.046;4.854;2023-02-15T00:02:01;2.00;99.90
69679;DHT22;56915;52.046;4.854;2023-02-15T00:04:29;2.00;99.90
69679;DHT22;56915;52.046;4.854;2023-02-15T00:07:14;2.00;99.90
69679;DHT22;56915;52.046;4.854;2023-02-15T00:09:41;1.90;99.90
69679;DHT22;56915;52.046;4.854;2023-02-15T00:12:09;1.90;99.90
69679;DHT22;56915;52.046;4.854;2023-02-15T00:14:36;1.80;99.90
69679;DHT22;56915;52.046;4.854;2023-02-15T00:17:03;1.80;99.90
69679;DHT22;56915;52.046;4.854;2023-02-15T00:19:30;1.70;99.90
69679;DHT22;56915;52.046;4.854;2023-02-15T00:21:57;1.70;99.90
69679;DHT22;56915;52.046;4.854;2023-02-15T00:24:24;1.60;99.90
69679;DHT22;56915;52.046;4.854;2023-02-15T00:26:52;1.50;99.90
69679;DHT22;56915;52.046;4.854;2023-02-15T00:29:20;1.50;99.90
69679;DHT22;56915;52.046;4.854;2023-02-15T00:31:47;1.40;99.90
69679;DHT22;56915;52.046;4.854;2023-02-15T00:34:23;1.40;99.90
69679;DHT22;56915;52.046;4.854;2023-02-15T00:36:50;1.50;99.90
69679;DHT22;56915;52.046;4.854;2023-02-15T00:39:18;1.50;99.90
69679;DHT22;56915;52.046;4.854;2023-02-15T00:41:45;1.40;99.90
69679;DHT22;56915;52.046;4.854;2023-02-15T00:44:14;1.40;99.90
69679;DHT22;56915;52.046;4.854;2023-02-15T00:46:42;1.40;99.90
69679;DHT22;56915;52.046;4.854;2023-02-15T00:49:10;1.30;99.90
69679;DHT22;56915;52.046;4.854;2023-02-15T00:51:38;1.20;99.90
69679;DHT22;56915;52.046;4.854;2023-02-15T00:54:06;1.20;99.90
69679;DHT22;56915;52.046;4.854;2023-02-15T00:56:33;1.10;99.90
69679;DHT22;56915;52.046;4.854;2023-02-15T00:58:59;1.00;99.90
69679;DHT22;56915;52.046;4.854;2023-02-15T01:01:26;1.00;99.90
69679;DHT22;56915;52.046;4.854;2023-02-15T01:03:53;0.90;99.90
69679;DHT22;56915;52.046;4.854;2023-02-15T01:06:20;0.90;99.90
69679;DHT22;56915;52.046;4.854;2023-02-15T01:08:47;0.90;99.90
69679;DHT22;56915;52.046;4.854;2023-02-15T01:11:16;0.80;99.90
69679;DHT22;56915;52.046;4.854;2023-02-15T01:13:53;0.80;99.90
69679;DHT22;56915;52.046;4.854;2023-02-15T01:16:22;0.80;99.90
69679;DHT22;56915;52.046;4.854;2023-02-15T01:18:49;0.80;99.90
69679;DHT22;56915;52.046;4.854;2023-02-15T01:21:19;0.70;99.90
69679;DHT22;56915;52.046;4.854;2023-02-15T01:23:46;0.70;99.90
69679;DHT22;56915;52.046;4.854;2023-02-15T01:26:14;0.70;99.90
69679;DHT22;56915;52.046;4.854;2023-02-15T01:28:41;0.80;99.90
69679;DHT22;56915;52.046;4.854;2023-02-15T01:31:09;0.70;99.90
69679;DHT22;56915;52.046;4.854;2023-02-15T01:33:37;0.80;99.90
69679;DHT22;56915;52.046;4.854;2023-02-15T01:36:04;0.80;99.90
69679;DHT22;56915;52.046;4.854;2023-02-15T01:38:31;0.80;99.90
69679;DHT22;56915;52.046;4.854;2023-02-15T01:40:58;0.90;99.90
69679;DHT22;56915;52.046;4.854;2023-02-15T01:43:51;0.90;99.90
69679;DHT22;56915;52.046;4.854;2023-02-15T01:46:27;0.90;99.90
69679;DHT22;56915;52.046;4.854;2023-02-15T01:49:02;1.00;99.90
69679;DHT22;56915;52.046;4.854;2023-02-15T01:51:31;1.00;99.90
69679;DHT22;56915;52.046;4.854;2023-02-15T01:54:03;1.00;99.90
69679;DHT22;56915;52.046;4.854;2023-02-15T01:56:34;0.90;99.90
69679;DHT22;56915;52.046;4.854;2023-02-15T01:59:05;0.90;99.90
69679;DHT22;56915;52.046;4.854;2023-02-15T02:01:33;0.90;99.90
69679;DHT22;56915;52.046;4.854;2023-02-15T02:04:35;0.90;99.90
69679;DHT22;56915;52.046;4.854;2023-02-15T02:07:06;0.90;99.90
69679;DHT22;56915;52.046;4.854;2023-02-15T02:09:36;0.90;99.90
69679;DHT22;56915;52.046;4.854;2023-02-15T02:12:03;0.90;99.90
69679;DHT22;56915;52.046;4.854;2023-02-15T02:14:30;0.90;99.90
69679;DHT22;56915;52.046;4.854;2023-02-15T02:27:39;1.10;99.90
69679;DHT22;56915;52.046;4.854;2023-02-15T02:30:36;1.10;99.90
69679;DHT22;56915;52.046;4.854;2023-02-15T02:36:13;1.20;99.90
69679;DHT22;56915;52.046;4.854;2023-02-15T02:44:14;1.20;99.90
69679;DHT22;56915;52.046;4.854;2023-02-15T02:46:51;1.20;99.90
69679;DHT22;56915;52.046;4.854;2023-02-15T02:49:41;1.20;99.90
69679;DHT22;56915;52.046;4.854;2023-02-15T02:55:01;1.30;99.90
69679;DHT22;56915;52.046;4.854;2023-02-15T02:57:29;1.30;99.90
69679;DHT22;56915;52.046;4.854;2023-02-15T02:59:58;1.30;99.90
69679;DHT22;56915;52.046;4.854;2023-02-15T03:02:32;1.30;99.90
69679;DHT22;56915;52.046;4.854;2023-02-15T03:05:05;1.30;99.90
69679;DHT22;56915;52.046;4.854;2023-02-15T03:07:34;1.30;99.90
69679;DHT22;56915;52.046;4.854;2023-02-15T03:10:05;1.20;99.90
69679;DHT22;56915;52.046;4.854;2023-02-15T03:12:38;1.20;99.90
69679;DHT22;56915;52.046;4.854;2023-02-15T03:15:11;1.20;99.90
69679;DHT22;56915;52.046;4.854;2023-02-15T03:17:44;1.20;99.90
69679;DHT22;56915;52.046;4.854;2023-02-15T03:20:33;1.10;99.90
69679;DHT22;56915;52.046;4.854;2023-02-15T03:23:15;1.10;99.90
69679;DHT22;56915;52.046;4.854;2023-02-15T03:25:50;1.10;99.90
69679;DHT22;56915;52.046;4.854;2023-02-15T03:28:23;1.10;99.90
69679;DHT22;56915;52.046;4.854;2023-02-15T03:30:55;1.10;99.90
69679;DHT22;56915;52.046;4.854;2023-02-15T03:33:23;1.10;99.90
69679;DHT22;56915;52.046;4.854;2023-02-15T03:36:08;1.10;99.90
69679;DHT22;56915;52.046;4.854;2023-02-15T03:38:44;1.00;99.90
69679;DHT22;56915;52.046;4.854;2023-02-15T03:41:16;1.10;99.90
69679;DHT22;56915;52.046;4.854;2023-02-15T03:43:56;1.10;99.90
69679;DHT22;56915;52.046;4.854;2023-02-15T03:46:25;1.10;99.90
69679;DHT22;56915;52.046;4.854;2023-02-15T03:51:50;1.00;99.90
69679;DHT22;56915;52.046;4.854;2023-02-15T03:54:26;1.00;99.90
69679;DHT22;56915;52.046;4.854;2023-02-15T03:57:24;1.00;99.90
69679;DHT22;56915;52.046;4.854;2023-02-15T04:00:22;1.00;99.90
69679;DHT22;56915;52.046;4.854;2023-02-15T04:03:31;1.00;99.90
69679;DHT22;56915;52.046;4.854;2023-02-15T04:06:01;0.90;99.90
69679;DHT22;56915;52.046;4.854;2023-02-15T04:08:29;0.90;99.90
69679;DHT22;56915;52.046;4.854;2023-02-15T04:11:14;0.90;99.90
69679;DHT22;56915;52.046;4.854;2023-02-15T04:13:41;0.80;99.90
69679;DHT22;56915;52.046;4.854;2023-02-15T04:16:08;0.80;99.90
69679;DHT22;56915;52.046;4.854;2023-02-15T04:18:37;0.70;99.90
69679;DHT22;56915;52.046;4.854;2023-02-15T04:21:25;0.70;99.90
69679;DHT22;56915;52.046;4.854;2023-02-15T04:24:11;0.60;99.90
69679;DHT22;56915;52.046;4.854;2023-02-15T04:26:57;0.50;99.90
69679;DHT22;56915;52.046;4.854;2023-02-15T04:29:26;0.50;99.90
69679;DHT22;56915;52.046;4.854;2023-02-15T04:31:55;0.40;99.90
69679;DHT22;56915;52.046;4.854;2023-02-15T04:34:22;0.40;99.90
69679;DHT22;56915;52.046;4.854;2023-02-15T04:36:49;0.40;99.90
69679;DHT22;56915;52.046;4.854;2023-02-15T04:39:18;0.40;99.90
69679;DHT22;56915;52.046;4.854;2023-02-15T04:41:46;0.40;99.90
69679;DHT22;56915;52.046;4.854;2023-02-15T04:44:14;0.30;99.90
69679;DHT22;56915;52.046;4.854;2023-02-15T04:46:41;0.30;99.90
69679;DHT22;56915;52.046;4.854;2023-02-15T04:49:08;0.40;99.90
69679;DHT22;56915;52.046;4.854;2023-02-15T04:51:36;0.40;99.90
69679;DHT22;56915;52.046;4.854;2023-02-15T04:54:02;0.40;99.90
69679;DHT22;56915;52.046;4.854;2023-02-15T04:56:29;0.40;99.90
69679;DHT22;56915;52.046;4.854;2023-02-15T04:58:57;0.50;99.90
69679;DHT22;56915;52.046;4.854;2023-02-15T05:01:23;0.50;99.90
69679;DHT22;56915;52.046;4.854;2023-02-15T05:03:50;0.50;99.90
69679;DHT22;56915;52.046;4.854;2023-02-15T05:06:17;0.50;99.90
69679;DHT22;56915;52.046;4.854;2023-02-15T05:08:44;0.50;99.90
69679;DHT22;56915;52.046;4.854;2023-02-15T05:11:11;0.50;99.90
69679;DHT22;56915;52.046;4.854;2023-02-15T05:13:37;0.50;99.90
69679;DHT22;56915;52.046;4.854;2023-02-15T05:16:04;0.50;99.90
69679;DHT22;56915;52.046;4.854;2023-02-15T05:18:31;0.50;99.90
69679;DHT22;56915;52.046;4.854;2023-02-15T05:20:58;0.40;99.90
69679;DHT22;56915;52.046;4.854;2023-02-15T05:23:26;0.40;99.90
69679;DHT22;56915;52.046;4.854;2023-02-15T05:25:53;0.40;99.90
69679;DHT22;56915;52.046;4.854;2023-02-15T05:28:38;0.40;99.90
69679;DHT22;56915;52.046;4.854;2023-02-15T05:31:11;0.40;99.90
69679;DHT22;56915;52.046;4.854;2023-02-15T05:33:39;0.30;99.90
69679;DHT22;56915;52.046;4.854;2023-02-15T05:36:07;0.30;99.90
69679;DHT22;56915;52.046;4.854;2023-02-15T05:38:34;0.20;99.90
69679;DHT22;56915;52.046;4.854;2023-02-15T05:41:06;0.20;99.90
69679;DHT22;56915;52.046;4.854;2023-02-15T05:43:34;0.20;99.90
69679;DHT22;56915;52.046;4.854;2023-02-15T05:46:02;0.20;99.90
69679;DHT22;56915;52.046;4.854;2023-02-15T05:48:30;0.20;99.90
69679;DHT22;56915;52.046;4.854;2023-02-15T05:51:09;0.20;99.90
69679;DHT22;56915;52.046;4.854;2023-02-15T05:53:37;0.20;99.90
69679;DHT22;56915;52.046;4.854;2023-02-15T05:56:06;0.10;99.90
69679;DHT22;56915;52.046;4.854;2023-02-15T05:58:35;0.10;99.90
69679;DHT22;56915;52.046;4.854;2023-02-15T06:01:18;0.10;99.90
69679;DHT22;56915;52.046;4.854;2023-02-15T06:03:45;0.10;99.90
69679;DHT22;56915;52.046;4.854;2023-02-15T06:06:12;0.00;99.90
69679;DHT22;56915;52.046;4.854;2023-02-15T06:08:40;0.00;99.90
69679;DHT22;56915;52.046;4.854;2023-02-15T06:11:07;0.00;99.90
69679;DHT22;56915;52.046;4.854;2023-02-15T06:13:34;0.00;99.90
69679;DHT22;56915;52.046;4.854;2023-02-15T06:16:05;0.00;99.90
69679;DHT22;56915;52.046;4.854;2023-02-15T06:18:32;0.10;99.90
69679;DHT22;56915;52.046;4.854;2023-02-15T06:20:59;0.20;99.90
69679;DHT22;56915;52.046;4.854;2023-02-15T06:23:26;0.20;99.90
69679;DHT22;56915;52.046;4.854;2023-02-15T06:25:53;0.20;99.90
69679;DHT22;56915;52.046;4.854;2023-02-15T06:28:20;0.10;99.90
69679;DHT22;56915;52.046;4.854;2023-02-15T06:30:46;0.10;99.90
69679;DHT22;56915;52.046;4.854;2023-02-15T06:33:13;0.00;99.90
69679;DHT22;56915;52.046;4.854;2023-02-15T06:35:40;0.00;99.90
69679;DHT22;56915;52.046;4.854;2023-02-15T06:38:07;0.00;99.90
69679;DHT22;56915;52.046;4.854;2023-02-15T06:40:34;0.00;99.90
69679;DHT22;56915;52.046;4.854;2023-02-15T06:43:00;0.00;99.90
69679;DHT22;56915;52.046;4.854;2023-02-15T06:45:27;0.00;99.90
69679;DHT22;56915;52.046;4.854;2023-02-15T06:47:54;0.00;99.90
69679;DHT22;56915;52.046;4.854;2023-02-15T06:50:21;0.10;99.90
69679;DHT22;56915;52.046;4.854;2023-02-15T06:52:48;0.10;99.90
69679;DHT22;56915;52.046;4.854;2023-02-15T06:55:15;0.10;99.90
69679;DHT22;56915;52.046;4.854;2023-02-15T06:57:41;0.10;99.90
69679;DHT22;56915;52.046;4.854;2023-02-15T07:00:09;0.10;99.90
69679;DHT22;56915;52.046;4.854;2023-02-15T07:02:35;0.20;99.90
69679;DHT22;56915;52.046;4.854;2023-02-15T07:05:02;0.20;99.90
69679;DHT22;56915;52.046;4.854;2023-02-15T07:07:34;0.20;99.90
69679;DHT22;56915;52.046;4.854;2023-02-15T07:10:02;0.20;99.90
69679;DHT22;56915;52.046;4.854;2023-02-15T07:12:29;0.20;99.90
69679;DHT22;56915;52.046;4.854;2023-02-15T07:15:09;0.30;99.90
69679;DHT22;56915;52.046;4.854;2023-02-15T07:17:39;0.30;99.90
69679;DHT22;56915;52.046;4.854;2023-02-15T07:20:14;0.30;99.90
69679;DHT22;56915;52.046;4.854;2023-02-15T07:22:41;0.30;99.90
69679;DHT22;56915;52.046;4.854;2023-02-15T07:25:10;0.30;99.90
69679;DHT22;56915;52.046;4.854;2023-02-15T07:27:37;0.30;99.90
69679;DHT22;56915;52.046;4.854;2023-02-15T07:30:06;0.40;99.90
69679;DHT22;56915;52.046;4.854;2023-02-15T07:32:33;0.40;99.90
69679;DHT22;56915;52.046;4.854;2023-02-15T07:35:00;0.40;99.90
69679;DHT22;56915;52.046;4.854;2023-02-15T07:37:27;0.50;99.90
69679;DHT22;56915;52.046;4.854;2023-02-15T07:39:54;0.50;99.90
69679;DHT22;56915;52.046;4.854;2023-02-15T07:42:21;0.60;99.90
69679;DHT22;56915;52.046;4.854;2023-02-15T07:44:49;0.70;99.90
69679;DHT22;56915;52.046;4.854;2023-02-15T07:47:15;0.80;99.90
69679;DHT22;56915;52.046;4.854;2023-02-15T07:49:42;0.80;99.90
69679;DHT22;56915;52.046;4.854;2023-02-15T07:52:09;0.90;99.90
69679;DHT22;56915;52.046;4.854;2023-02-15T07:54:36;1.00;99.90
69679;DHT22;56915;52.046;4.854;2023-02-15T07:57:03;1.10;99.90
69679;DHT22;56915;52.046;4.854;2023-02-15T07:59:30;1.10;99.90
69679;DHT22;56915;52.046;4.854;2023-02-15T08:01:57;1.20;99.90
69679;DHT22;56915;52.046;4.854;2023-02-15T08:04:27;1.40;99.90
69679;DHT22;56915;52.046;4.854;2023-02-15T08:06:54;1.50;99.90
69679;DHT22;56915;52.046;4.854;2023-02-15T08:09:21;1.60;99.90
69679;DHT22;56915;52.046;4.854;2023-02-15T08:11:48;1.70;99.90
69679;DHT22;56915;52.046;4.854;2023-02-15T08:14:17;1.70;99.90
69679;DHT22;56915;52.046;4.854;2023-02-15T08:16:46;1.80;99.90
69679;DHT22;56915;52.046;4.854;2023-02-15T08:19:23;1.90;99.90
69679;DHT22;56915;52.046;4.854;2023-02-15T08:24:20;2.20;99.90
69679;DHT22;56915;52.046;4.854;2023-02-15T08:26:48;2.30;99.90
69679;DHT22;56915;52.046;4.854;2023-02-15T08:29:20;2.40;99.90
69679;DHT22;56915;52.046;4.854;2023-02-15T08:31:50;2.50;99.90
69679;DHT22;56915;52.046;4.854;2023-02-15T08:34:20;2.60;99.90
69679;DHT22;56915;52.046;4.854;2023-02-15T08:36:47;2.70;99.90
69679;DHT22;56915;52.046;4.854;2023-02-15T08:39:14;2.90;99.90
69679;DHT22;56915;52.046;4.854;2023-02-15T08:41:43;3.00;99.90
69679;DHT22;56915;52.046;4.854;2023-02-15T08:44:10;3.20;99.90
69679;DHT22;56915;52.046;4.854;2023-02-15T08:46:39;3.30;99.90
69679;DHT22;56915;52.046;4.854;2023-02-15T08:49:06;3.40;99.90
69679;DHT22;56915;52.046;4.854;2023-02-15T08:51:35;3.40;99.90
69679;DHT22;56915;52.046;4.854;2023-02-15T08:54:07;3.50;99.90
69679;DHT22;56915;52.046;4.854;2023-02-15T08:56:37;3.70;99.90
69679;DHT22;56915;52.046;4.854;2023-02-15T08:59:05;3.80;99.90
69679;DHT22;56915;52.046;4.854;2023-02-15T09:01:33;3.90;99.90
69679;DHT22;56915;52.046;4.854;2023-02-15T09:04:05;4.00;99.90
69679;DHT22;56915;52.046;4.854;2023-02-15T09:06:36;4.10;99.90
69679;DHT22;56915;52.046;4.854;2023-02-15T09:09:04;4.20;99.90
69679;DHT22;56915;52.046;4.854;2023-02-15T09:11:40;4.40;99.90
69679;DHT22;56915;52.046;4.854;2023-02-15T09:14:16;4.50;99.90
69679;DHT22;56915;52.046;4.854;2023-02-15T09:16:45;4.50;99.90
69679;DHT22;56915;52.046;4.854;2023-02-15T09:19:18;4.70;99.90
69679;DHT22;56915;52.046;4.854;2023-02-15T09:21:46;4.80;99.90
69679;DHT22;56915;52.046;4.854;2023-02-15T09:24:14;4.80;99.90
69679;DHT22;56915;52.046;4.854;2023-02-15T09:26:43;4.90;99.90
69679;DHT22;56915;52.046;4.854;2023-02-15T09:29:11;5.00;99.90
69679;DHT22;56915;52.046;4.854;2023-02-15T09:31:46;5.10;99.90
69679;DHT22;56915;52.046;4.854;2023-02-15T09:34:15;5.20;99.90
69679;DHT22;56915;52.046;4.854;2023-02-15T09:36:43;5.30;99.90
69679;DHT22;56915;52.046;4.854;2023-02-15T09:39:19;5.40;99.90
69679;DHT22;56915;52.046;4.854;2023-02-15T09:50:37;5.90;99.90
69679;DHT22;56915;52.046;4.854;2023-02-15T10:03:59;6.30;99.90
69679;DHT22;56915;52.046;4.854;2023-02-15T10:06:38;6.40;99.90
69679;DHT22;56915;52.046;4.854;2023-02-15T10:11:55;6.60;99.90
69679;DHT22;56915;52.046;4.854;2023-02-15T10:22:41;7.10;99.90
69679;DHT22;56915;52.046;4.854;2023-02-15T10:28:06;7.40;99.90
69679;DHT22;56915;52.046;4.854;2023-02-15T10:30:52;7.50;99.90
69679;DHT22;56915;52.046;4.854;2023-02-15T10:33:43;7.60;99.90
69679;DHT22;56915;52.046;4.854;2023-02-15T10:39:38;7.80;99.90
69679;DHT22;56915;52.046;4.854;2023-02-15T10:42:24;7.90;99.90
69679;DHT22;56915;52.046;4.854;2023-02-15T10:54:29;8.50;99.90
69679;DHT22;56915;52.046;4.854;2023-02-15T10:56:41;8.70;99.90
69679;DHT22;56915;52.046;4.854;2023-02-15T10:59:38;8.80;99.90
69679;DHT22;56915;52.046;4.854;2023-02-15T11:07:42;9.30;99.90
69679;DHT22;56915;52.046;4.854;2023-02-15T11:12:44;9.60;99.90
69679;DHT22;56915;52.046;4.854;2023-02-15T11:15:16;9.70;99.90
69679;DHT22;56915;52.046;4.854;2023-02-15T11:17:51;9.80;99.90
69679;DHT22;56915;52.046;4.854;2023-02-15T11:20:50;10.00;99.90
69679;DHT22;56915;52.046;4.854;2023-02-15T11:23:21;10.10;99.90
69679;DHT22;56915;52.046;4.854;2023-02-15T11:25:58;10.20;99.90
69679;DHT22;56915;52.046;4.854;2023-02-15T11:28:37;10.40;99.90
69679;DHT22;56915;52.046;4.854;2023-02-15T11:31:42;10.40;99.90
69679;DHT22;56915;52.046;4.854;2023-02-15T11:34:53;10.60;99.90
69679;DHT22;56915;52.046;4.854;2023-02-15T11:37:20;10.70;99.90
69679;DHT22;56915;52.046;4.854;2023-02-15T11:39:51;10.80;99.90
69679;DHT22;56915;52.046;4.854;2023-02-15T11:42:32;10.90;99.90
69679;DHT22;56915;52.046;4.854;2023-02-15T11:45:04;11.00;99.90
69679;DHT22;56915;52.046;4.854;2023-02-15T11:47:33;11.10;99.90
69679;DHT22;56915;52.046;4.854;2023-02-15T11:50:00;11.20;99.90
69679;DHT22;56915;52.046;4.854;2023-02-15T11:52:27;11.30;99.90
69679;DHT22;56915;52.046;4.854;2023-02-15T11:54:54;11.40;99.90
69679;DHT22;56915;52.046;4.854;2023-02-15T11:57:35;11.40;99.40
69679;DHT22;56915;52.046;4.854;2023-02-15T12:00:12;11.50;98.00
69679;DHT22;56915;52.046;4.854;2023-02-15T12:02:45;11.60;97.70
69679;DHT22;56915;52.046;4.854;2023-02-15T12:05:17;11.70;96.40
69679;DHT22;56915;52.046;4.854;2023-02-15T12:07:50;11.70;95.20
69679;DHT22;56915;52.046;4.854;2023-02-15T12:10:23;11.80;95.50
69679;DHT22;56915;52.046;4.854;2023-02-15T12:13:14;12.00;94.20
69679;DHT22;56915;52.046;4.854;2023-02-15T12:15:47;12.20;93.80
69679;DHT22;56915;52.046;4.854;2023-02-15T12:18:40;12.30;90.70
69679;DHT22;56915;52.046;4.854;2023-02-15T12:21:14;12.30;89.70
69679;DHT22;56915;52.046;4.854;2023-02-15T12:23:47;12.50;88.40
69679;DHT22;56915;52.046;4.854;2023-02-15T12:26:32;12.50;87.00
69679;DHT22;56915;52.046;4.854;2023-02-15T12:29:16;12.60;84.60
69679;DHT22;56915;52.046;4.854;2023-02-15T12:31:51;12.70;82.20
69679;DHT22;56915;52.046;4.854;2023-02-15T12:34:22;12.80;81.30
69679;DHT22;56915;52.046;4.854;2023-02-15T12:36:52;12.80;80.20
69679;DHT22;56915;52.046;4.854;2023-02-15T12:39:32;12.80;77.90
69679;DHT22;56915;52.046;4.854;2023-02-15T12:42:08;12.90;77.90
69679;DHT22;56915;52.046;4.854;2023-02-15T12:44:57;12.90;75.80
69679;DHT22;56915;52.046;4.854;2023-02-15T12:47:24;12.90;75.30
69679;DHT22;56915;52.046;4.854;2023-02-15T12:50:23;12.90;75.40
69679;DHT22;56915;52.046;4.854;2023-02-15T12:53:20;12.90;74.00
69679;DHT22;56915;52.046;4.854;2023-02-15T12:58:22;12.90;73.50
69679;DHT22;56915;52.046;4.854;2023-02-15T13:01:16;12.90;72.50
69679;DHT22;56915;52.046;4.854;2023-02-15T13:04:05;12.90;71.50
69679;DHT22;56915;52.046;4.854;2023-02-15T13:06:34;12.90;71.20
69679;DHT22;56915;52.046;4.854;2023-02-15T13:09:17;13.00;70.50
69679;DHT22;56915;52.046;4.854;2023-02-15T13:11:46;13.10;70.50
69679;DHT22;56915;52.046;4.854;2023-02-15T13:14:31;13.10;69.70
69679;DHT22;56915;52.046;4.854;2023-02-15T13:17:01;13.20;69.90
69679;DHT22;56915;52.046;4.854;2023-02-15T13:19:35;13.40;69.80
69679;DHT22;56915;52.046;4.854;2023-02-15T13:22:07;13.50;68.30
69679;DHT22;56915;52.046;4.854;2023-02-15T13:24:44;13.50;68.30
69679;DHT22;56915;52.046;4.854;2023-02-15T13:27:18;13.60;68.00
69679;DHT22;56915;52.046;4.854;2023-02-15T13:29:52;13.70;67.90
69679;DHT22;56915;52.046;4.854;2023-02-15T13:32:33;13.80;66.70
69679;DHT22;56915;52.046;4.854;2023-02-15T13:35:04;13.70;64.70
69679;DHT22;56915;52.046;4.854;2023-02-15T13:40:15;13.60;64.90
69679;DHT22;56915;52.046;4.854;2023-02-15T13:42:56;13.60;65.10
69679;DHT22;56915;52.046;4.854;2023-02-15T13:45:36;13.60;64.90
69679;DHT22;56915;52.046;4.854;2023-02-15T13:48:20;13.60;66.10
69679;DHT22;56915;52.046;4.854;2023-02-15T13:56:44;13.80;65.10
69679;DHT22;56915;52.046;4.854;2023-02-15T13:59:16;13.80;65.10
69679;DHT22;56915;52.046;4.854;2023-02-15T14:01:59;13.80;65.00
69679;DHT22;56915;52.046;4.854;2023-02-15T14:07:32;13.90;64.60
69679;DHT22;56915;52.046;4.854;2023-02-15T14:18:48;13.70;63.50
69679;DHT22;56915;52.046;4.854;2023-02-15T14:21:28;13.50;63.40
69679;DHT22;56915;52.046;4.854;2023-02-15T14:29:57;13.30;63.60
69679;DHT22;56915;52.046;4.854;2023-02-15T14:32:33;13.40;64.10
69679;DHT22;56915;52.046;4.854;2023-02-15T14:35:05;13.50;64.00
69679;DHT22;56915;52.046;4.854;2023-02-15T14:40:53;13.50;63.60
69679;DHT22;56915;52.046;4.854;2023-02-15T14:49:10;13.10;63.80
69679;DHT22;56915;52.046;4.854;2023-02-15T14:59:55;12.80;64.50
69679;DHT22;56915;52.046;4.854;2023-02-15T15:02:50;12.80;64.70
69679;DHT22;56915;52.046;4.854;2023-02-15T15:06:06;12.70;64.90
69679;DHT22;56915;52.046;4.854;2023-02-15T15:08:37;12.70;65.00
69679;DHT22;56915;52.046;4.854;2023-02-15T15:11:45;12.60;65.10
69679;DHT22;56915;52.046;4.854;2023-02-15T15:17:02;12.50;64.80
69679;DHT22;56915;52.046;4.854;2023-02-15T15:19:56;12.40;64.90
69679;DHT22;56915;52.046;4.854;2023-02-15T15:22:25;12.30;64.90
69679;DHT22;56915;52.046;4.854;2023-02-15T15:24:57;12.30;65.20
69679;DHT22;56915;52.046;4.854;2023-02-15T15:27:47;12.20;65.30
69679;DHT22;56915;52.046;4.854;2023-02-15T15:44:38;11.80;66.40
69679;DHT22;56915;52.046;4.854;2023-02-15T15:49:56;11.60;66.40
69679;DHT22;56915;52.046;4.854;2023-02-15T15:52:24;11.50;66.40
69679;DHT22;56915;52.046;4.854;2023-02-15T15:55:04;11.40;66.50
69679;DHT22;56915;52.046;4.854;2023-02-15T15:57:42;11.30;66.70
69679;DHT22;56915;52.046;4.854;2023-02-15T16:03:15;11.10;67.00
69679;DHT22;56915;52.046;4.854;2023-02-15T16:05:43;11.00;67.30
69679;DHT22;56915;52.046;4.854;2023-02-15T16:08:09;10.80;67.30
69679;DHT22;56915;52.046;4.854;2023-02-15T16:10:36;10.70;67.30
69679;DHT22;56915;52.046;4.854;2023-02-15T16:13:05;10.50;67.50
69679;DHT22;56915;52.046;4.854;2023-02-15T16:15:47;10.40;68.40
69679;DHT22;56915;52.046;4.854;2023-02-15T16:18:17;10.20;67.90
69679;DHT22;56915;52.046;4.854;2023-02-15T16:20:57;10.10;68.30
69679;DHT22;56915;52.046;4.854;2023-02-15T16:26:33;9.80;69.00
69679;DHT22;56915;52.046;4.854;2023-02-15T16:29:17;9.70;69.40
69679;DHT22;56915;52.046;4.854;2023-02-15T16:32:03;9.50;69.70
69679;DHT22;56915;52.046;4.854;2023-02-15T16:34:30;9.30;70.00
69679;DHT22;56915;52.046;4.854;2023-02-15T16:37:19;9.20;70.40
69679;DHT22;56915;52.046;4.854;2023-02-15T16:39:48;9.00;70.80
69679;DHT22;56915;52.046;4.854;2023-02-15T16:42:17;8.90;71.20
69679;DHT22;56915;52.046;4.854;2023-02-15T16:44:46;8.70;71.80
69679;DHT22;56915;52.046;4.854;2023-02-15T16:47:37;8.60;72.50
69679;DHT22;56915;52.046;4.854;2023-02-15T16:50:17;8.50;73.20
69679;DHT22;56915;52.046;4.854;2023-02-15T16:52:45;8.40;73.80
69679;DHT22;56915;52.046;4.854;2023-02-15T16:55:23;8.30;74.40
69679;DHT22;56915;52.046;4.854;2023-02-15T16:57:53;8.20;75.00
69679;DHT22;56915;52.046;4.854;2023-02-15T17:00:24;8.10;75.60
69679;DHT22;56915;52.046;4.854;2023-02-15T17:03:00;8.00;76.30
69679;DHT22;56915;52.046;4.854;2023-02-15T17:10:37;7.80;78.80
69679;DHT22;56915;52.046;4.854;2023-02-15T17:13:13;7.80;79.90
69679;DHT22;56915;52.046;4.854;2023-02-15T17:18:49;7.70;80.70
69679;DHT22;56915;52.046;4.854;2023-02-15T17:21:20;7.60;81.30
69679;DHT22;56915;52.046;4.854;2023-02-15T17:23:51;7.50;82.10
69679;DHT22;56915;52.046;4.854;2023-02-15T17:26:31;7.40;83.00
69679;DHT22;56915;52.046;4.854;2023-02-15T17:29:02;7.30;84.10
69679;DHT22;56915;52.046;4.854;2023-02-15T17:31:36;7.30;85.20
69679;DHT22;56915;52.046;4.854;2023-02-15T17:34:03;7.30;86.30
69679;DHT22;56915;52.046;4.854;2023-02-15T17:36:31;7.20;87.10
69679;DHT22;56915;52.046;4.854;2023-02-15T17:41:26;7.10;88.40
69679;DHT22;56915;52.046;4.854;2023-02-15T17:43:54;7.10;89.30
69679;DHT22;56915;52.046;4.854;2023-02-15T17:46:21;7.00;90.00
69679;DHT22;56915;52.046;4.854;2023-02-15T17:49:07;7.00;90.10
69679;DHT22;56915;52.046;4.854;2023-02-15T17:51:40;7.00;90.40
69679;DHT22;56915;52.046;4.854;2023-02-15T17:54:08;6.90;90.50
69679;DHT22;56915;52.046;4.854;2023-02-15T17:56:54;6.90;90.60
69679;DHT22;56915;52.046;4.854;2023-02-15T17:59:24;6.80;90.80
69679;DHT22;56915;52.046;4.854;2023-02-15T18:01:51;6.80;91.10
69679;DHT22;56915;52.046;4.854;2023-02-15T18:04:36;6.70;91.40
69679;DHT22;56915;52.046;4.854;2023-02-15T18:07:22;6.70;91.50
69679;DHT22;56915;52.046;4.854;2023-02-15T18:10:15;6.70;91.90
69679;DHT22;56915;52.046;4.854;2023-02-15T18:13:02;6.70;92.20
69679;DHT22;56915;52.046;4.854;2023-02-15T18:15:35;6.70;92.40
69679;DHT22;56915;52.046;4.854;2023-02-15T18:18:02;6.60;92.10
69679;DHT22;56915;52.046;4.854;2023-02-15T18:20:35;6.70;92.10
69679;DHT22;56915;52.046;4.854;2023-02-15T18:23:04;6.60;92.20
69679;DHT22;56915;52.046;4.854;2023-02-15T18:25:31;6.60;92.20
69679;DHT22;56915;52.046;4.854;2023-02-15T18:27:58;6.60;92.30
69679;DHT22;56915;52.046;4.854;2023-02-15T18:30:25;6.50;92.40
69679;DHT22;56915;52.046;4.854;2023-02-15T18:32:55;6.50;92.50
69679;DHT22;56915;52.046;4.854;2023-02-15T18:35:27;6.40;92.90
69679;DHT22;56915;52.046;4.854;2023-02-15T18:37:56;6.40;92.70
69679;DHT22;56915;52.046;4.854;2023-02-15T18:40:28;6.40;92.80
69679;DHT22;56915;52.046;4.854;2023-02-15T18:42:55;6.30;92.80
69679;DHT22;56915;52.046;4.854;2023-02-15T18:45:25;6.30;92.90
69679;DHT22;56915;52.046;4.854;2023-02-15T18:47:54;6.20;93.20
69679;DHT22;56915;52.046;4.854;2023-02-15T18:50:23;6.20;93.60
69679;DHT22;56915;52.046;4.854;2023-02-15T18:52:52;6.20;93.60
69679;DHT22;56915;52.046;4.854;2023-02-15T18:55:24;6.10;93.90
69679;DHT22;56915;52.046;4.854;2023-02-15T18:57:53;6.10;94.10
69679;DHT22;56915;52.046;4.854;2023-02-15T19:00:32;6.10;94.30
69679;DHT22;56915;52.046;4.854;2023-02-15T19:03:01;6.10;94.50